Time;durP1;ratioP1;P1;durP2;ratioP2;P2;SDS_P1;SDS_P2;PMS_P1;PMS_P2;Temp;Humidity;BMP_temperature;BMP_pressure;BME280_temperature;BME280_humidity;BME280_pressure;Samples;Min_cycle;Max_cycle;Signal;HPM_P1;HPM_P2
2022/10/30 00:02:32;;;;;;;8.40;3.33;;;;;;;;;;10406819;28;20077;-56
2022/10/30 00:07:32;;;;;;;6.38;3.40;;;;;;;;;;10404632;28;20037;-56
2022/10/30 00:12:32;;;;;;;5.10;3.38;;;;;;;;;;10406653;28;20392;-54
2022/10/30 00:17:33;;;;;;;6.32;3.55;;;;;;;;;;10400893;28;20022;-57
2022/10/30 00:22:34;;;;;;;6.32;3.58;;;;;;;;;;10407576;28;20211;-59
2022/10/30 00:27:34;;;;;;;7.65;3.22;;;;;;;;;;10405931;28;20033;-55
2022/10/30 00:32:34;;;;;;;5.60;3.57;;;;;;;;;;10419554;28;20029;-58
2022/10/30 00:37:35;;;;;;;7.03;3.97;;;;;;;;;;10401266;28;20104;-57
2022/10/30 00:42:36;;;;;;;5.25;3.45;;;;;;;;;;10408678;28;20043;-57
2022/10/30 00:47:38;;;;;;;5.72;3.33;;;;;;;;;;10418641;28;20033;-58
2022/10/30 00:52:42;;;;;;;5.40;3.72;;;;;;;;;;10415680;28;20435;-59
2022/10/30 00:57:42;;;;;;;5.60;3.60;;;;;;;;;;10413888;28;20350;-59
2022/10/30 01:02:43;;;;;;;4.50;3.40;;;;;;;;;;10414903;28;20033;-56
2022/10/30 01:07:43;;;;;;;4.13;3.30;;;;;;;;;;10413471;28;20450;-58
2022/10/30 01:12:44;;;;;;;4.85;3.47;;;;;;;;;;10414087;28;20529;-59
2022/10/30 01:17:53;;;;;;;5.18;3.35;;;;;;;;;;10413253;28;20477;-58
2022/10/30 01:22:56;;;;;;;6.30;3.10;;;;;;;;;;10413085;28;20165;-60
2022/10/30 01:28:14;;;;;;;6.13;3.42;;;;;;;;;;10419831;28;20029;-59
2022/10/30 01:33:31;;;;;;;5.53;3.58;;;;;;;;;;10400034;28;20736;-59
2022/10/30 01:38:35;;;;;;;4.32;3.03;;;;;;;;;;10407633;28;20040;-59
2022/10/30 01:43:35;;;;;;;5.18;3.40;;;;;;;;;;10406601;28;20037;-58
2022/10/30 01:48:42;;;;;;;4.15;3.15;;;;;;;;;;10399523;28;20099;-54
2022/10/30 01:54:08;;;;;;;4.93;3.28;;;;;;;;;;10411935;28;20542;-57
2022/10/30 01:59:08;;;;;;;4.47;3.35;;;;;;;;;;10391208;28;20053;-59
2022/10/30 02:04:10;;;;;;;7.15;3.30;;;;;;;;;;10397047;28;20022;-57
2022/10/30 02:09:10;;;;;;;4.63;3.00;;;;;;;;;;10410494;28;20503;-58
2022/10/30 02:14:11;;;;;;;8.15;2.95;;;;;;;;;;10414612;28;20116;-56
2022/10/30 02:19:12;;;;;;;6.15;3.35;;;;;;;;;;10411470;28;20154;-57
2022/10/30 02:24:12;;;;;;;6.32;3.05;;;;;;;;;;10412134;28;20112;-57
2022/10/30 02:29:12;;;;;;;5.68;3.20;;;;;;;;;;10411720;28;20480;-48
2022/10/30 02:34:13;;;;;;;6.28;3.38;;;;;;;;;;10409210;28;20032;-48
2022/10/30 02:39:13;;;;;;;7.67;3.20;;;;;;;;;;10412590;28;20029;-48
2022/10/30 02:44:13;;;;;;;4.60;3.20;;;;;;;;;;10417093;28;20025;-55
2022/10/30 02:49:14;;;;;;;4.82;3.40;;;;;;;;;;10409397;28;20038;-54
2022/10/30 02:54:14;;;;;;;4.35;3.13;;;;;;;;;;10414493;28;20025;-53
2022/10/30 02:59:14;;;;;;;4.40;2.97;;;;;;;;;;10424744;28;20102;-54
2022/10/30 03:04:14;;;;;;;8.30;3.40;;;;;;;;;;10401095;28;20040;-54
2022/10/30 03:09:15;;;;;;;3.80;3.28;;;;;;;;;;10395631;28;20041;-54
2022/10/30 03:14:15;;;;;;;4.57;2.90;;;;;;;;;;10402908;28;20116;-54
2022/10/30 03:19:15;;;;;;;5.77;3.60;;;;;;;;;;10388273;28;20036;-52
2022/10/30 03:24:15;;;;;;;4.82;3.20;;;;;;;;;;10405982;28;20018;-53
2022/10/30 03:29:16;;;;;;;5.97;3.20;;;;;;;;;;10402285;28;20049;-53
2022/10/30 03:34:16;;;;;;;4.70;3.05;;;;;;;;;;10406879;28;20025;-56
2022/10/30 03:39:16;;;;;;;5.18;3.22;;;;;;;;;;10396249;28;20547;-58
2022/10/30 03:44:16;;;;;;;4.07;2.83;;;;;;;;;;10380759;28;20385;-53
2022/10/30 03:49:17;;;;;;;4.97;2.75;;;;;;;;;;10415780;28;20543;-58
2022/10/30 03:54:17;;;;;;;4.93;3.30;;;;;;;;;;10401743;28;20022;-58
2022/10/30 03:59:17;;;;;;;3.10;2.80;;;;;;;;;;10397477;28;20539;-57
2022/10/30 04:04:18;;;;;;;5.93;2.80;;;;;;;;;;10404750;28;20033;-53
2022/10/30 04:09:18;;;;;;;4.03;3.00;;;;;;;;;;10410335;28;20037;-55
2022/10/30 04:14:18;;;;;;;3.63;2.80;;;;;;;;;;10407375;28;20044;-56
2022/10/30 04:19:18;;;;;;;4.38;3.10;;;;;;;;;;10414241;28;20029;-56
2022/10/30 04:24:18;;;;;;;3.90;2.90;;;;;;;;;;10403480;28;20022;-57
2022/10/30 04:29:19;;;;;;;5.70;3.30;;;;;;;;;;10423567;28;20025;-59
2022/10/30 04:34:19;;;;;;;4.00;3.22;;;;;;;;;;10401415;28;20104;-59
2022/10/30 04:39:19;;;;;;;5.60;3.33;;;;;;;;;;10415144;28;20037;-54
2022/10/30 04:44:20;;;;;;;5.13;3.07;;;;;;;;;;10414546;28;20112;-59
2022/10/30 04:49:20;;;;;;;4.07;3.28;;;;;;;;;;10412849;28;21076;-59
2022/10/30 04:54:21;;;;;;;4.45;3.20;;;;;;;;;;10412829;28;20230;-58
2022/10/30 04:59:21;;;;;;;4.50;2.90;;;;;;;;;;10401078;28;20129;-54
2022/10/30 05:04:21;;;;;;;5.35;3.20;;;;;;;;;;10425432;28;20068;-53
2022/10/30 05:09:21;;;;;;;5.03;3.17;;;;;;;;;;10409600;28;20037;-59
2022/10/30 05:14:22;;;;;;;3.43;2.70;;;;;;;;;;10422133;28;20037;-54
2022/10/30 05:19:22;;;;;;;4.75;2.83;;;;;;;;;;10386994;28;20167;-55
2022/10/30 05:24:22;;;;;;;5.90;3.20;;;;;;;;;;10402336;28;20082;-53
2022/10/30 05:29:22;;;;;;;4.35;2.88;;;;;;;;;;10415265;28;20025;-58
2022/10/30 05:34:23;;;;;;;3.17;2.88;;;;;;;;;;10400957;28;20025;-57
2022/10/30 05:39:23;;;;;;;4.88;2.80;;;;;;;;;;10408707;28;20029;-58
2022/10/30 05:44:25;;;;;;;3.72;2.60;;;;;;;;;;10408377;28;20472;-58
2022/10/30 05:49:26;;;;;;;4.32;3.28;;;;;;;;;;10410515;28;20575;-56
2022/10/30 05:54:26;;;;;;;3.78;2.80;;;;;;;;;;10401716;28;20123;-54
2022/10/30 05:59:26;;;;;;;4.25;3.15;;;;;;;;;;10385841;28;20045;-57
2022/10/30 06:04:26;;;;;;;3.30;2.77;;;;;;;;;;10407007;28;20034;-48
2022/10/30 06:09:27;;;;;;;3.67;2.50;;;;;;;;;;10389902;28;20037;-55
2022/10/30 06:14:27;;;;;;;4.20;2.67;;;;;;;;;;10411130;28;20112;-58
2022/10/30 06:19:27;;;;;;;7.82;2.70;;;;;;;;;;10402210;28;20033;-51
2022/10/30 06:24:28;;;;;;;3.60;2.60;;;;;;;;;;10411413;28;20029;-52
2022/10/30 06:29:28;;;;;;;4.15;3.03;;;;;;;;;;10407029;28;20523;-53
2022/10/30 06:34:28;;;;;;;7.30;3.15;;;;;;;;;;10415952;28;20374;-55
2022/10/30 06:39:29;;;;;;;5.97;3.38;;;;;;;;;;10400119;28;20510;-56
2022/10/30 06:44:29;;;;;;;4.18;3.05;;;;;;;;;;10407883;28;20701;-58
2022/10/30 06:49:29;;;;;;;10.13;3.13;;;;;;;;;;10408903;28;20029;-57
2022/10/30 06:54:30;;;;;;;2.85;2.45;;;;;;;;;;10402527;28;20096;-58
2022/10/30 06:59:30;;;;;;;6.90;2.78;;;;;;;;;;10380589;28;20037;-56
2022/10/30 07:04:30;;;;;;;3.75;3.05;;;;;;;;;;10409477;28;20033;-55
2022/10/30 07:09:31;;;;;;;3.67;2.88;;;;;;;;;;10409145;28;20095;-57
2022/10/30 07:14:31;;;;;;;4.77;3.30;;;;;;;;;;10408938;28;20033;-58
2022/10/30 07:19:31;;;;;;;6.97;3.25;;;;;;;;;;10395144;28;20208;-57
2022/10/30 07:24:32;;;;;;;6.70;3.15;;;;;;;;;;10389066;28;20104;-61
2022/10/30 07:29:32;;;;;;;6.57;3.53;;;;;;;;;;10390577;28;20030;-59
2022/10/30 07:34:33;;;;;;;4.90;3.00;;;;;;;;;;10389989;28;20025;-58
2022/10/30 07:39:33;;;;;;;6.90;3.67;;;;;;;;;;10400554;28;20017;-51
2022/10/30 07:44:33;;;;;;;16.75;3.75;;;;;;;;;;10398022;28;20468;-60
2022/10/30 07:49:34;;;;;;;11.45;3.38;;;;;;;;;;10407173;28;20383;-60
2022/10/30 07:54:34;;;;;;;13.70;4.00;;;;;;;;;;10407407;28;20091;-59
2022/10/30 07:59:34;;;;;;;7.72;3.42;;;;;;;;;;10407056;28;20056;-60
2022/10/30 08:04:34;;;;;;;5.10;3.53;;;;;;;;;;10407699;28;20029;-60
2022/10/30 08:09:35;;;;;;;7.70;3.25;;;;;;;;;;10407032;28;20036;-59
2022/10/30 08:14:35;;;;;;;7.50;4.07;;;;;;;;;;10406951;28;20030;-59
2022/10/30 08:19:35;;;;;;;7.33;3.50;;;;;;;;;;10394690;28;20040;-59
2022/10/30 08:24:35;;;;;;;10.52;3.85;;;;;;;;;;10399011;28;20056;-59
2022/10/30 08:29:36;;;;;;;5.72;3.13;;;;;;;;;;10401458;28;20029;-60
2022/10/30 08:34:36;;;;;;;8.95;3.80;;;;;;;;;;10393610;28;20153;-59
2022/10/30 08:39:36;;;;;;;9.77;3.30;;;;;;;;;;10388398;28;20018;-60
2022/10/30 08:44:36;;;;;;;5.87;3.37;;;;;;;;;;10398908;28;20033;-50
2022/10/30 08:49:37;;;;;;;11.35;3.70;;;;;;;;;;10392958;28;20503;-58
2022/10/30 08:54:37;;;;;;;4.97;3.08;;;;;;;;;;10393245;28;20036;-57
2022/10/30 08:59:37;;;;;;;6.38;3.17;;;;;;;;;;10405910;28;20057;-57
2022/10/30 09:04:37;;;;;;;7.72;3.10;;;;;;;;;;10392831;28;20079;-59
2022/10/30 09:09:38;;;;;;;5.60;3.33;;;;;;;;;;10396790;28;20030;-57
2022/10/30 09:14:38;;;;;;;8.45;3.63;;;;;;;;;;10413728;28;20036;-58
2022/10/30 09:19:38;;;;;;;7.05;3.55;;;;;;;;;;10400308;28;20034;-59
2022/10/30 09:24:39;;;;;;;3.90;2.83;;;;;;;;;;10405182;28;20481;-57
2022/10/30 09:29:39;;;;;;;5.13;3.50;;;;;;;;;;10407890;28;20029;-58
2022/10/30 09:34:39;;;;;;;5.35;2.85;;;;;;;;;;10399903;28;20036;-57
2022/10/30 09:39:40;;;;;;;5.00;2.85;;;;;;;;;;10394289;28;20041;-58
2022/10/30 09:44:49;;;;;;;4.25;2.92;;;;;;;;;;10405745;28;20360;-58
2022/10/30 09:49:49;;;;;;;7.00;3.10;;;;;;;;;;10412153;28;20044;-57
2022/10/30 09:55:08;;;;;;;5.20;3.13;;;;;;;;;;10411966;28;20027;-58
2022/10/30 10:00:10;;;;;;;7.10;2.97;;;;;;;;;;10405037;28;20037;-57
2022/10/30 10:05:16;;;;;;;6.45;2.92;;;;;;;;;;10405524;28;20025;-59
2022/10/30 10:10:19;;;;;;;5.18;3.42;;;;;;;;;;10411878;28;20025;-58
2022/10/30 10:15:43;;;;;;;5.85;2.72;;;;;;;;;;10395209;28;20037;-58
2022/10/30 10:20:46;;;;;;;7.38;3.45;;;;;;;;;;10396491;28;20501;-60
2022/10/30 10:25:51;;;;;;;5.15;2.90;;;;;;;;;;10411043;28;20022;-58
2022/10/30 10:30:59;;;;;;;4.60;2.90;;;;;;;;;;10397835;28;20107;-57
2022/10/30 10:36:05;;;;;;;6.60;2.73;;;;;;;;;;10410008;28;20018;-56
2022/10/30 10:41:38;;;;;;;6.82;3.10;;;;;;;;;;10396986;28;20485;-58
2022/10/30 10:46:53;;;;;;;4.60;2.60;;;;;;;;;;10379024;28;20315;-58
2022/10/30 10:52:01;;;;;;;3.70;2.80;;;;;;;;;;10396486;28;20033;-58
2022/10/30 10:57:02;;;;;;;6.63;2.75;;;;;;;;;;10401226;28;20035;-59
2022/10/30 11:02:26;;;;;;;3.97;2.55;;;;;;;;;;10383851;28;20188;-57
2022/10/30 11:07:31;;;;;;;3.78;2.58;;;;;;;;;;10408428;28;20029;-58
2022/10/30 11:12:34;;;;;;;3.47;2.50;;;;;;;;;;10394801;28;20029;-58
2022/10/30 11:17:40;;;;;;;5.90;2.92;;;;;;;;;;10389338;28;20026;-58
2022/10/30 11:22:43;;;;;;;3.80;2.92;;;;;;;;;;10402614;28;20065;-57
2022/10/30 11:27:45;;;;;;;9.00;2.70;;;;;;;;;;10408449;28;20392;-57
2022/10/30 11:32:45;;;;;;;3.33;2.80;;;;;;;;;;10408251;28;20030;-54
2022/10/30 11:38:12;;;;;;;4.10;2.60;;;;;;;;;;10408323;28;20040;-57
2022/10/30 11:43:14;;;;;;;4.28;2.72;;;;;;;;;;10401260;28;20073;-59
2022/10/30 11:48:20;;;;;;;3.10;2.60;;;;;;;;;;10395595;28;20117;-58
2022/10/30 11:53:24;;;;;;;2.60;2.40;;;;;;;;;;10396125;28;20029;-59
2022/10/30 11:58:26;;;;;;;5.32;2.80;;;;;;;;;;10401218;28;20508;-59
2022/10/30 12:03:28;;;;;;;6.25;2.72;;;;;;;;;;10406155;28;20021;-59
2022/10/30 12:08:28;;;;;;;4.07;2.83;;;;;;;;;;10392517;28;20473;-57
2022/10/30 12:13:37;;;;;;;3.95;2.65;;;;;;;;;;10404370;28;20025;-59
2022/10/30 12:18:38;;;;;;;3.75;2.80;;;;;;;;;;10392078;28;20045;-59
2022/10/30 12:23:38;;;;;;;4.22;2.75;;;;;;;;;;10405853;28;20025;-58
2022/10/30 12:28:52;;;;;;;3.72;2.70;;;;;;;;;;10392735;28;20044;-58
2022/10/30 12:34:05;;;;;;;5.13;2.35;;;;;;;;;;10392913;28;20084;-57
2022/10/30 12:39:11;;;;;;;3.65;2.40;;;;;;;;;;10391796;28;20457;-58
2022/10/30 12:44:18;;;;;;;3.60;2.40;;;;;;;;;;10406930;28;20038;-58
2022/10/30 12:49:25;;;;;;;5.50;2.70;;;;;;;;;;10411709;28;20500;-58
2022/10/30 12:54:44;;;;;;;5.45;2.30;;;;;;;;;;10411691;28;20033;-57
2022/10/30 12:59:50;;;;;;;3.72;2.58;;;;;;;;;;10372743;28;1144987;-59
2022/10/30 13:04:54;;;;;;;3.58;2.47;;;;;;;;;;10414359;28;20112;-59
2022/10/30 13:10:13;;;;;;;3.08;2.45;;;;;;;;;;10401057;28;20025;-59
2022/10/30 13:15:19;;;;;;;4.53;2.28;;;;;;;;;;10394961;28;20025;-59
2022/10/30 13:20:20;;;;;;;2.53;2.30;;;;;;;;;;10402325;28;20026;-59
2022/10/30 13:25:39;;;;;;;2.88;2.13;;;;;;;;;;10414211;28;20048;-58
2022/10/30 13:30:42;;;;;;;3.97;2.30;;;;;;;;;;10400138;28;20029;-59
2022/10/30 13:35:52;;;;;;;4.00;2.53;;;;;;;;;;10413228;28;20029;-60
2022/10/30 13:41:04;;;;;;;7.25;2.45;;;;;;;;;;10413076;28;20030;-60
2022/10/30 13:46:23;;;;;;;3.63;2.33;;;;;;;;;;10399910;28;20033;-58
2022/10/30 13:51:23;;;;;;;3.38;2.50;;;;;;;;;;10399486;28;20033;-60
2022/10/30 13:56:24;;;;;;;3.33;2.17;;;;;;;;;;10412175;28;20373;-58
2022/10/30 14:01:27;;;;;;;6.93;2.77;;;;;;;;;;10409070;28;20172;-59
2022/10/30 14:06:53;;;;;;;4.22;2.42;;;;;;;;;;10402242;28;20614;-60
2022/10/30 14:11:54;;;;;;;4.82;2.72;;;;;;;;;;10385053;28;20124;-60
2022/10/30 14:17:08;;;;;;;3.07;2.40;;;;;;;;;;10398035;28;20109;-58
2022/10/30 14:22:21;;;;;;;2.58;2.15;;;;;;;;;;10387916;28;20026;-59
2022/10/30 14:27:31;;;;;;;6.80;2.83;;;;;;;;;;10398317;28;20140;-60
2022/10/30 14:32:34;;;;;;;3.22;2.30;;;;;;;;;;10411122;28;20485;-60
2022/10/30 14:37:37;;;;;;;3.78;2.58;;;;;;;;;;10411449;28;20069;-60
2022/10/30 14:42:50;;;;;;;6.40;2.28;;;;;;;;;;10397525;28;20396;-60
2022/10/30 14:47:50;;;;;;;5.28;2.53;;;;;;;;;;10397120;28;20076;-58
2022/10/30 14:52:51;;;;;;;3.80;2.08;;;;;;;;;;10397131;28;20465;-57
2022/10/30 14:58:06;;;;;;;3.90;2.30;;;;;;;;;;10394898;28;20470;-57
2022/10/30 15:03:17;;;;;;;3.50;2.53;;;;;;;;;;10400542;28;20079;-58
2022/10/30 15:08:36;;;;;;;2.88;2.30;;;;;;;;;;10409910;28;20029;-58
2022/10/30 15:13:36;;;;;;;4.43;2.40;;;;;;;;;;10408426;28;20017;-56
2022/10/30 15:18:38;;;;;;;3.38;2.30;;;;;;;;;;10395802;28;20118;-58
2022/10/30 15:23:40;;;;;;;3.92;2.55;;;;;;;;;;10409600;28;20048;-57
2022/10/30 15:28:40;;;;;;;3.42;2.40;;;;;;;;;;10395707;28;20030;-59
2022/10/30 15:33:40;;;;;;;3.30;2.47;;;;;;;;;;10409569;28;20032;-58
2022/10/30 15:38:40;;;;;;;3.75;2.20;;;;;;;;;;10408079;28;21012;-58
2022/10/30 15:43:41;;;;;;;3.83;2.20;;;;;;;;;;10408549;28;20033;-57
2022/10/30 15:48:44;;;;;;;3.38;2.30;;;;;;;;;;10394470;28;20361;-59
2022/10/30 15:53:51;;;;;;;3.55;2.35;;;;;;;;;;10396267;28;20029;-60
2022/10/30 15:58:53;;;;;;;3.83;2.35;;;;;;;;;;10407703;28;20489;-57
2022/10/30 16:03:53;;;;;;;4.68;2.42;;;;;;;;;;10408153;28;20029;-58
2022/10/30 16:08:53;;;;;;;1.98;1.73;;;;;;;;;;10399071;28;20140;-59
2022/10/30 16:13:54;;;;;;;3.00;2.03;;;;;;;;;;10402317;28;20029;-59
2022/10/30 16:18:58;;;;;;;2.17;1.92;;;;;;;;;;10393407;28;20101;-57
2022/10/30 16:24:03;;;;;;;3.53;2.20;;;;;;;;;;10407715;28;20405;-59
2022/10/30 16:29:15;;;;;;;2.63;2.15;;;;;;;;;;10391493;28;20033;-57
2022/10/30 16:34:30;;;;;;;4.50;2.20;;;;;;;;;;10385643;28;20037;-58
2022/10/30 16:39:31;;;;;;;4.60;2.40;;;;;;;;;;10394408;28;20029;-58
2022/10/30 16:44:32;;;;;;;3.03;2.10;;;;;;;;;;10406902;28;20072;-58
2022/10/30 16:49:33;;;;;;;2.30;2.00;;;;;;;;;;10390211;28;20473;-58
2022/10/30 16:54:38;;;;;;;2.58;2.20;;;;;;;;;;10397659;28;20256;-56
2022/10/30 16:59:43;;;;;;;3.83;2.00;;;;;;;;;;10403996;28;20208;-58
2022/10/30 17:04:45;;;;;;;2.67;2.10;;;;;;;;;;10383786;28;20506;-57
2022/10/30 17:09:47;;;;;;;3.03;2.10;;;;;;;;;;10406305;28;20057;-58
2022/10/30 17:14:48;;;;;;;2.58;2.05;;;;;;;;;;10405565;28;20057;-58
2022/10/30 17:19:53;;;;;;;2.67;2.40;;;;;;;;;;10393449;28;20136;-59
2022/10/30 17:24:54;;;;;;;3.20;2.10;;;;;;;;;;10393296;28;20028;-59
2022/10/30 17:29:54;;;;;;;2.93;2.00;;;;;;;;;;10408421;28;20026;-59
2022/10/30 17:34:59;;;;;;;2.63;2.00;;;;;;;;;;10413503;28;20377;-58
2022/10/30 17:40:00;;;;;;;3.05;2.03;;;;;;;;;;10391720;28;20462;-58
2022/10/30 17:45:00;;;;;;;2.38;2.00;;;;;;;;;;10408730;28;20036;-56
2022/10/30 17:50:02;;;;;;;3.37;2.07;;;;;;;;;;10412397;28;20030;-58
2022/10/30 17:55:07;;;;;;;4.65;2.28;;;;;;;;;;10412678;28;20454;-58
2022/10/30 18:00:07;;;;;;;2.28;1.90;;;;;;;;;;10405939;28;20392;-59
2022/10/30 18:05:18;;;;;;;3.15;2.00;;;;;;;;;;10379017;28;20024;-57
2022/10/30 18:10:19;;;;;;;4.63;1.70;;;;;;;;;;10398374;28;20412;-58
2022/10/30 18:15:33;;;;;;;2.97;2.28;;;;;;;;;;10391752;28;20026;-59
2022/10/30 18:20:33;;;;;;;2.35;1.90;;;;;;;;;;10386804;28;20032;-60
2022/10/30 18:25:35;;;;;;;1.98;1.80;;;;;;;;;;10387907;28;20680;-59
2022/10/30 18:30:35;;;;;;;3.30;2.15;;;;;;;;;;10384723;28;20116;-60
2022/10/30 18:35:36;;;;;;;4.10;2.00;;;;;;;;;;10411025;28;20075;-58
2022/10/30 18:40:37;;;;;;;3.53;2.28;;;;;;;;;;10396883;28;20026;-60
2022/10/30 18:45:39;;;;;;;2.15;1.95;;;;;;;;;;10411070;28;20033;-57
2022/10/30 18:50:39;;;;;;;3.03;2.17;;;;;;;;;;10397827;28;20083;-57
2022/10/30 18:55:40;;;;;;;2.75;1.98;;;;;;;;;;10397247;28;20099;-59
2022/10/30 19:00:41;;;;;;;2.30;2.10;;;;;;;;;;10385603;28;20081;-59
2022/10/30 19:05:44;;;;;;;2.60;2.17;;;;;;;;;;10407648;28;20041;-59
2022/10/30 19:10:45;;;;;;;2.53;1.80;;;;;;;;;;10409347;28;20036;-58
2022/10/30 19:15:46;;;;;;;3.88;2.00;;;;;;;;;;10403723;28;20036;-59
2022/10/30 19:20:46;;;;;;;2.25;1.98;;;;;;;;;;10401506;28;20029;-58
2022/10/30 19:25:47;;;;;;;3.90;2.15;;;;;;;;;;10409158;28;20033;-59
2022/10/30 19:30:53;;;;;;;3.92;2.30;;;;;;;;;;10405682;28;20022;-59
2022/10/30 19:35:57;;;;;;;2.60;2.13;;;;;;;;;;10385973;28;20060;-60
2022/10/30 19:40:58;;;;;;;3.78;2.40;;;;;;;;;;10395401;28;20458;-58
2022/10/30 19:45:58;;;;;;;3.83;2.00;;;;;;;;;;10395735;28;20129;-59
2022/10/30 19:50:59;;;;;;;2.88;1.95;;;;;;;;;;10394825;28;20025;-59
2022/10/30 19:55:59;;;;;;;1.85;1.73;;;;;;;;;;10407888;28;20040;-59
2022/10/30 20:00:59;;;;;;;1.90;1.67;;;;;;;;;;10407865;28;20045;-60
2022/10/30 20:06:00;;;;;;;2.55;2.15;;;;;;;;;;10407903;28;20435;-57
2022/10/30 20:11:00;;;;;;;2.85;2.28;;;;;;;;;;10406285;28;20036;-59
2022/10/30 20:16:03;;;;;;;2.40;2.20;;;;;;;;;;10400710;28;20029;-60
2022/10/30 20:21:07;;;;;;;3.65;2.17;;;;;;;;;;10388988;28;20144;-58
2022/10/30 20:26:20;;;;;;;3.28;2.30;;;;;;;;;;10407496;28;20036;-56
2022/10/30 20:31:21;;;;;;;2.78;2.10;;;;;;;;;;10407349;28;20038;-59
2022/10/30 20:36:21;;;;;;;3.15;2.40;;;;;;;;;;10400327;28;20029;-58
2022/10/30 20:41:25;;;;;;;2.30;2.03;;;;;;;;;;10387516;28;20017;-59
2022/10/30 20:46:25;;;;;;;3.67;3.00;;;;;;;;;;10406947;28;20263;-55
2022/10/30 20:51:25;;;;;;;4.05;2.50;;;;;;;;;;10387785;28;20515;-56
2022/10/30 20:56:26;;;;;;;2.88;2.30;;;;;;;;;;10394659;28;20408;-59
2022/10/30 21:01:26;;;;;;;4.50;2.53;;;;;;;;;;10397250;28;20045;-58
2022/10/30 21:06:26;;;;;;;2.78;2.35;;;;;;;;;;10411085;28;20082;-56
2022/10/30 21:11:26;;;;;;;2.50;2.30;;;;;;;;;;10412987;28;20021;-59
2022/10/30 21:16:27;;;;;;;4.40;2.55;;;;;;;;;;10399669;28;20119;-55
2022/10/30 21:21:27;;;;;;;2.97;2.25;;;;;;;;;;10411500;28;20026;-56
2022/10/30 21:26:27;;;;;;;3.30;2.60;;;;;;;;;;10400406;28;20017;-58
2022/10/30 21:31:27;;;;;;;2.67;2.30;;;;;;;;;;10413939;28;20386;-56
2022/10/30 21:36:28;;;;;;;2.77;2.07;;;;;;;;;;10413964;28;20028;-56
2022/10/30 21:41:28;;;;;;;2.33;2.00;;;;;;;;;;10406273;28;20026;-57
2022/10/30 21:46:29;;;;;;;3.87;2.37;;;;;;;;;;10393648;28;20029;-56
2022/10/30 21:51:30;;;;;;;2.53;2.28;;;;;;;;;;10386188;28;20467;-57
2022/10/30 21:56:30;;;;;;;2.80;2.50;;;;;;;;;;10412282;28;20013;-58
2022/10/30 22:01:32;;;;;;;2.80;2.38;;;;;;;;;;10412735;28;20542;-59
2022/10/30 22:06:32;;;;;;;3.03;2.60;;;;;;;;;;10412053;28;20037;-58
2022/10/30 22:11:33;;;;;;;2.90;2.30;;;;;;;;;;10410686;28;20033;-58
2022/10/30 22:16:34;;;;;;;2.75;2.38;;;;;;;;;;10387374;28;20142;-58
2022/10/30 22:21:35;;;;;;;4.65;2.50;;;;;;;;;;10410246;28;20030;-59
2022/10/30 22:26:35;;;;;;;2.80;2.22;;;;;;;;;;10411439;28;20025;-58
2022/10/30 22:31:35;;;;;;;2.95;2.65;;;;;;;;;;10411237;28;20384;-57
2022/10/30 22:36:35;;;;;;;4.03;2.58;;;;;;;;;;10399809;28;20036;-59
2022/10/30 22:41:36;;;;;;;5.10;2.67;;;;;;;;;;10397741;28;20052;-57
2022/10/30 22:46:36;;;;;;;5.45;2.45;;;;;;;;;;10398002;28;20030;-57
2022/10/30 22:51:37;;;;;;;3.92;2.50;;;;;;;;;;10397127;28;20029;-60
2022/10/30 22:56:38;;;;;;;4.50;2.83;;;;;;;;;;10409898;28;20053;-58
2022/10/30 23:01:39;;;;;;;2.80;2.60;;;;;;;;;;10409841;28;20071;-59
2022/10/30 23:06:39;;;;;;;2.78;2.10;;;;;;;;;;10405697;28;20344;-58
2022/10/30 23:11:40;;;;;;;3.80;2.80;;;;;;;;;;10390194;28;20123;-59
2022/10/30 23:16:40;;;;;;;3.92;2.67;;;;;;;;;;10384510;28;20022;-58
2022/10/30 23:21:41;;;;;;;2.92;2.58;;;;;;;;;;10383001;28;20033;-57
2022/10/30 23:26:41;;;;;;;3.70;2.60;;;;;;;;;;10395452;28;20025;-58
2022/10/30 23:31:42;;;;;;;3.35;2.60;;;;;;;;;;10408500;28;20120;-56
2022/10/30 23:36:42;;;;;;;4.63;2.85;;;;;;;;;;10395421;28;20504;-58
2022/10/30 23:41:43;;;;;;;3.97;3.10;;;;;;;;;;10408223;28;20038;-56
2022/10/30 23:46:43;;;;;;;3.05;2.53;;;;;;;;;;10395015;28;20049;-55
2022/10/30 23:51:44;;;;;;;4.77;2.50;;;;;;;;;;10387668;28;20137;-58
2022/10/30 23:56:44;;;;;;;2.88;2.50;;;;;;;;;;10395565;28;20026;-57
